Time;durP1;ratioP1;P1;durP2;ratioP2;P2;SDS_P1;SDS_P2;PMS_P1;PMS_P2;Temp;Humidity;BMP_temperature;BMP_pressure;BME280_temperature;BME280_humidity;BME280_pressure;Samples;Min_cycle;Max_cycle;Signal;HPM_P1;HPM_P2
2022/04/10 00:01:34;;;;;;;;;;;;;;;11.46;50.11;101767.56;5053274;28;19955;-75
2022/04/10 00:03:59;;;;;;;;;;;;;;;11.98;48.41;101764.81;5052195;28;19928;-74
2022/04/10 00:06:25;;;;;;;;;;;;;;;12.13;48.18;101762.69;5052397;28;19920;-75
2022/04/10 00:08:50;;;;;;;;;;;;;;;11.28;49.65;101765.50;5051729;28;19916;-75
2022/04/10 00:11:15;;;;;;;;;;;;;;;11.55;49.30;101770.88;5050808;28;19916;-76
2022/04/10 00:13:40;;;;;;;;;;;;;;;10.92;50.40;101772.31;5051887;28;19913;-75
2022/04/10 00:16:07;;;;;;;;;;;;;;;10.48;51.71;101775.50;5051044;28;19917;-74
2022/04/10 00:18:34;;;;;;;;;;;;;;;11.00;50.88;101780.19;5051301;28;20380;-74
2022/04/10 00:20:59;;;;;;;;;;;;;;;11.41;49.32;101770.91;5051239;28;19979;-73
2022/04/10 00:23:24;;;;;;;;;;;;;;;10.89;50.57;101773.53;5051351;28;20241;-74
2022/04/10 00:25:49;;;;;;;;;;;;;;;11.03;50.45;101780.59;5049440;28;19908;-74
2022/04/10 00:28:14;;;;;;;;;;;;;;;11.11;50.80;101776.88;5050683;28;19916;-74
2022/04/10 00:30:40;;;;;;;;;;;;;;;10.92;50.27;101775.84;5051355;28;19923;-74
2022/04/10 00:33:05;;;;;;;;;;;;;;;10.43;52.52;101784.19;5049615;28;19987;-75
2022/04/10 00:35:30;;;;;;;;;;;;;;;11.20;50.92;101787.22;5052280;28;20733;-74
2022/04/10 00:37:56;;;;;;;;;;;;;;;10.54;51.97;101780.06;5051842;28;19951;-74
2022/04/10 00:40:21;;;;;;;;;;;;;;;10.66;52.85;101778.47;5052670;28;19962;-74
2022/04/10 00:42:48;;;;;;;;;;;;;;;9.95;54.23;101781.63;5052081;28;19921;-74
2022/04/10 00:45:13;;;;;;;;;;;;;;;10.07;54.38;101774.66;5051789;28;19962;-75
2022/04/10 00:47:39;;;;;;;;;;;;;;;10.77;52.42;101769.78;5051847;28;19917;-75
2022/04/10 00:50:05;;;;;;;;;;;;;;;9.99;53.24;101769.47;5050789;28;20023;-74
2022/04/10 00:52:30;;;;;;;;;;;;;;;10.70;51.92;101770.81;5052439;28;19930;-74
2022/04/10 00:54:57;;;;;;;;;;;;;;;10.71;51.93;101772.47;5052255;28;19916;-73
2022/04/10 00:57:23;;;;;;;;;;;;;;;11.43;50.29;101765.31;5051439;28;19917;-74
2022/04/10 00:59:49;;;;;;;;;;;;;;;11.31;49.75;101762.41;5051429;28;19921;-74
2022/04/10 01:02:14;;;;;;;;;;;;;;;11.46;49.76;101770.25;5053210;28;20556;-73
2022/04/10 01:04:40;;;;;;;;;;;;;;;10.01;53.57;101770.94;5051648;28;19916;-72
2022/04/10 01:07:05;;;;;;;;;;;;;;;9.54;54.99;101766.31;5050138;28;19960;-74
2022/04/10 01:09:33;;;;;;;;;;;;;;;10.76;51.76;101776.22;5051672;28;20012;-73
2022/04/10 01:11:59;;;;;;;;;;;;;;;10.72;51.96;101768.75;5051181;28;19924;-73
2022/04/10 01:14:24;;;;;;;;;;;;;;;11.00;50.75;101772.13;5051253;28;20316;-75
2022/04/10 01:16:50;;;;;;;;;;;;;;;11.00;51.08;101770.25;5051467;28;19957;-72
2022/04/10 01:19:16;;;;;;;;;;;;;;;10.36;52.34;101779.78;5049800;28;20483;-75
2022/04/10 01:21:44;;;;;;;;;;;;;;;10.31;53.05;101775.03;5049904;28;19913;-74
2022/04/10 01:24:10;;;;;;;;;;;;;;;10.46;52.44;101767.66;5051087;28;19920;-75
2022/04/10 01:26:35;;;;;;;;;;;;;;;10.74;50.63;101772.91;5049002;28;20296;-75
2022/04/10 01:29:02;;;;;;;;;;;;;;;11.37;49.65;101768.81;5051271;28;19917;-76
2022/04/10 01:31:28;;;;;;;;;;;;;;;11.16;50.44;101779.78;5051424;28;19916;-74
2022/04/10 01:33:55;;;;;;;;;;;;;;;10.97;51.00;101769.81;5050891;28;19917;-77
2022/04/10 01:36:21;;;;;;;;;;;;;;;9.95;53.33;101774.41;5049836;28;19913;-75
2022/04/10 01:38:47;;;;;;;;;;;;;;;10.13;53.04;101771.22;5050781;28;19929;-74
2022/04/10 01:41:13;;;;;;;;;;;;;;;10.64;51.72;101772.47;5051157;28;19917;-74
2022/04/10 01:43:44;;;;;;;;;;;;;;;10.07;53.56;101775.50;5051651;28;19919;-74
2022/04/10 01:46:10;;;;;;;;;;;;;;;10.45;51.54;101770.53;5051296;28;19982;-74
2022/04/10 01:48:35;;;;;;;;;;;;;;;9.56;53.83;101772.31;5050918;28;19963;-76
2022/04/10 01:51:01;;;;;;;;;;;;;;;9.66;54.66;101767.44;5051339;28;19952;-75
2022/04/10 01:53:26;;;;;;;;;;;;;;;10.18;52.47;101776.84;5050744;28;19955;-74
2022/04/10 01:55:51;;;;;;;;;;;;;;;9.82;53.30;101771.66;5050645;28;19912;-76
2022/04/10 01:58:16;;;;;;;;;;;;;;;10.47;51.72;101784.59;5052786;28;19912;-74
2022/04/10 02:00:41;;;;;;;;;;;;;;;10.63;51.00;101784.25;5050701;28;19924;-74
2022/04/10 02:03:07;;;;;;;;;;;;;;;10.95;50.02;101791.53;5050031;28;20028;-74
2022/04/10 02:05:32;;;;;;;;;;;;;;;10.11;51.78;101787.53;5050960;28;20032;-75
2022/04/10 02:07:57;;;;;;;;;;;;;;;10.34;51.68;101793.44;5049996;28;19974;-75
2022/04/10 02:10:23;;;;;;;;;;;;;;;10.26;51.25;101793.59;5051183;28;19916;-75
2022/04/10 02:12:48;;;;;;;;;;;;;;;10.04;52.54;101791.19;5039238;28;20015;-76
2022/04/10 02:15:13;;;;;;;;;;;;;;;10.14;51.84;101792.50;5037086;28;19940;-74
2022/04/10 02:17:39;;;;;;;;;;;;;;;10.63;50.43;101786.09;5041701;28;19937;-76
2022/04/10 02:20:04;;;;;;;;;;;;;;;9.91;51.85;101788.41;5048517;28;19921;-75
2022/04/10 02:22:29;;;;;;;;;;;;;;;10.74;50.38;101799.78;5051103;28;19915;-75
2022/04/10 02:24:55;;;;;;;;;;;;;;;10.60;49.96;101800.78;5050532;28;19916;-76
2022/04/10 02:27:20;;;;;;;;;;;;;;;10.77;49.45;101796.66;5049734;28;20019;-75
2022/04/10 02:29:46;;;;;;;;;;;;;;;10.67;49.65;101801.63;5050372;28;20380;-75
2022/04/10 02:32:11;;;;;;;;;;;;;;;10.70;49.46;101801.22;5050119;28;20956;-74
2022/04/10 02:34:37;;;;;;;;;;;;;;;10.23;50.03;101811.97;5050578;28;19919;-74
2022/04/10 02:37:02;;;;;;;;;;;;;;;10.05;51.13;101807.09;5050743;28;19913;-76
2022/04/10 02:39:28;;;;;;;;;;;;;;;10.30;50.69;101805.59;5049726;28;20574;-75
2022/04/10 02:41:53;;;;;;;;;;;;;;;11.11;49.08;101811.84;5050130;28;20403;-76
2022/04/10 02:44:18;;;;;;;;;;;;;;;11.24;48.42;101809.19;5048518;28;19917;-74
2022/04/10 02:46:44;;;;;;;;;;;;;;;10.58;50.42;101805.50;5049953;28;20296;-76
2022/04/10 02:49:09;;;;;;;;;;;;;;;10.82;49.09;101806.81;5050308;28;19917;-75
2022/04/10 02:51:34;;;;;;;;;;;;;;;10.87;49.18;101809.75;5048007;28;20007;-75
2022/04/10 02:53:59;;;;;;;;;;;;;;;10.81;49.76;101818.63;5051568;28;19936;-75
2022/04/10 02:56:24;;;;;;;;;;;;;;;11.32;48.31;101822.44;5050209;28;19974;-74
2022/04/10 02:58:50;;;;;;;;;;;;;;;10.45;49.81;101824.28;5049313;28;19967;-75
2022/04/10 03:01:15;;;;;;;;;;;;;;;11.07;49.21;101824.88;5049938;28;20490;-75
2022/04/10 03:03:41;;;;;;;;;;;;;;;10.35;50.04;101821.13;5049941;28;19924;-76
2022/04/10 03:06:06;;;;;;;;;;;;;;;11.07;48.62;101819.50;5049142;28;19916;-76
2022/04/10 03:08:32;;;;;;;;;;;;;;;11.30;47.51;101819.13;5049402;28;19940;-74
2022/04/10 03:10:57;;;;;;;;;;;;;;;10.67;48.85;101823.13;5049743;28;19913;-75
2022/04/10 03:13:23;;;;;;;;;;;;;;;9.74;51.61;101825.50;5053075;28;19915;-75
2022/04/10 03:15:48;;;;;;;;;;;;;;;9.48;52.31;101826.13;5056668;28;19917;-77
2022/04/10 03:18:13;;;;;;;;;;;;;;;9.97;51.72;101831.44;5055964;28;19967;-74
2022/04/10 03:20:38;;;;;;;;;;;;;;;9.85;52.08;101833.00;5055999;28;19998;-75
2022/04/10 03:23:08;;;;;;;;;;;;;;;9.61;52.54;101830.78;5056916;28;19912;-75
2022/04/10 03:25:33;;;;;;;;;;;;;;;9.52;53.04;101826.56;5056622;28;19916;-75
2022/04/10 03:27:59;;;;;;;;;;;;;;;9.63;52.13;101829.53;5055518;28;19921;-75
2022/04/10 03:30:24;;;;;;;;;;;;;;;9.75;51.94;101835.19;5056529;28;19913;-75
2022/04/10 03:32:49;;;;;;;;;;;;;;;9.20;53.42;101837.84;5054544;28;19939;-75
2022/04/10 03:35:14;;;;;;;;;;;;;;;9.49;52.91;101835.81;5056320;28;19917;-76
2022/04/10 03:37:40;;;;;;;;;;;;;;;10.00;51.19;101833.72;5054737;28;19967;-77
2022/04/10 03:40:05;;;;;;;;;;;;;;;9.05;54.75;101831.69;5056054;28;19925;-74
2022/04/10 03:42:38;;;;;;;;;;;;;;;9.48;54.09;101833.31;5056213;28;20372;-77
2022/04/10 03:45:03;;;;;;;;;;;;;;;9.15;54.31;101840.25;5056082;28;19920;-75
2022/04/10 03:47:28;;;;;;;;;;;;;;;9.62;52.32;101846.66;5055924;28;19916;-75
2022/04/10 03:49:54;;;;;;;;;;;;;;;9.35;53.29;101839.44;5057891;28;19951;-75
2022/04/10 03:52:19;;;;;;;;;;;;;;;9.62;52.22;101835.94;5056653;28;19913;-76
2022/04/10 03:54:44;;;;;;;;;;;;;;;9.49;52.91;101849.22;5056376;28;19916;-74
2022/04/10 03:57:09;;;;;;;;;;;;;;;9.64;52.94;101841.09;5056226;28;20007;-76
2022/04/10 03:59:34;;;;;;;;;;;;;;;9.58;53.96;101840.03;5055862;28;19978;-75
2022/04/10 04:02:00;;;;;;;;;;;;;;;9.37;54.30;101850.78;5055268;28;20345;-76
2022/04/10 04:04:25;;;;;;;;;;;;;;;9.47;54.38;101855.84;5052101;28;19913;-75
2022/04/10 04:06:50;;;;;;;;;;;;;;;9.59;54.09;101856.97;5035978;28;19913;-75
2022/04/10 04:09:15;;;;;;;;;;;;;;;10.15;52.04;101853.25;5036278;28;20348;-75
2022/04/10 04:11:41;;;;;;;;;;;;;;;9.60;53.36;101867.50;5036384;28;19928;-76
2022/04/10 04:14:07;;;;;;;;;;;;;;;9.49;54.28;101868.00;5035907;28;19936;-76
2022/04/10 04:16:33;;;;;;;;;;;;;;;10.11;52.17;101864.59;5056120;28;19913;-75
2022/04/10 04:18:59;;;;;;;;;;;;;;;10.14;51.35;101870.38;5056030;28;20002;-76
2022/04/10 04:21:24;;;;;;;;;;;;;;;9.89;51.81;101868.31;5041478;28;20067;-75
2022/04/10 04:23:49;;;;;;;;;;;;;;;10.05;51.90;101884.97;5035695;28;19945;-76
2022/04/10 04:26:15;;;;;;;;;;;;;;;10.24;51.24;101875.44;5031297;28;19916;-75
2022/04/10 04:28:40;;;;;;;;;;;;;;;10.25;50.83;101879.78;5036548;28;20371;-75
2022/04/10 04:31:05;;;;;;;;;;;;;;;10.83;48.92;101873.84;5052697;28;19927;-75
2022/04/10 04:33:31;;;;;;;;;;;;;;;10.60;49.20;101870.66;5048448;28;19913;-76
2022/04/10 04:35:56;;;;;;;;;;;;;;;10.82;48.23;101874.88;5033016;28;19917;-75
2022/04/10 04:38:21;;;;;;;;;;;;;;;10.67;49.18;101868.84;5032450;28;19984;-75
2022/04/10 04:40:47;;;;;;;;;;;;;;;11.48;46.71;101870.47;5032835;28;19921;-74
2022/04/10 04:43:12;;;;;;;;;;;;;;;11.09;47.37;101871.22;5034301;28;19917;-75
2022/04/10 04:45:37;;;;;;;;;;;;;;;11.65;45.97;101871.72;5053573;28;20003;-75
2022/04/10 04:48:03;;;;;;;;;;;;;;;11.95;45.48;101875.66;5052271;28;19921;-75
2022/04/10 04:50:29;;;;;;;;;;;;;;;11.02;46.36;101886.53;5052471;28;19920;-76
2022/04/10 04:52:54;;;;;;;;;;;;;;;11.08;47.12;101885.72;5050362;28;19958;-75
2022/04/10 04:55:19;;;;;;;;;;;;;;;10.99;46.65;101880.72;5053085;28;19916;-77
2022/04/10 04:57:44;;;;;;;;;;;;;;;11.11;46.59;101881.78;5052332;28;19951;-76
2022/04/10 05:00:11;;;;;;;;;;;;;;;10.34;48.46;101883.94;5051866;28;19916;-76
2022/04/10 05:02:36;;;;;;;;;;;;;;;10.84;47.20;101888.94;5052393;28;20358;-76
2022/04/10 05:05:02;;;;;;;;;;;;;;;10.52;48.83;101916.50;5051771;28;20012;-75
2022/04/10 05:07:27;;;;;;;;;;;;;;;9.39;53.32;101942.63;5051618;28;19959;-75
2022/04/10 05:09:52;;;;;;;;;;;;;;;9.27;54.38;101949.53;5052678;28;20434;-75
2022/04/10 05:12:18;;;;;;;;;;;;;;;9.57;55.14;101947.56;5051482;28;20610;-76
2022/04/10 05:14:45;;;;;;;;;;;;;;;9.72;54.24;101949.16;5051540;28;20306;-76
2022/04/10 05:17:11;;;;;;;;;;;;;;;9.52;54.86;101937.41;5051486;28;19931;-75
2022/04/10 05:19:36;;;;;;;;;;;;;;;9.50;54.94;101957.38;5051324;28;19917;-75
2022/04/10 05:22:01;;;;;;;;;;;;;;;9.58;55.49;101962.63;5051946;28;19928;-75
2022/04/10 05:24:26;;;;;;;;;;;;;;;9.01;57.69;101957.25;5051606;28;19968;-76
2022/04/10 05:26:52;;;;;;;;;;;;;;;9.34;57.54;101960.28;5050719;28;19928;-76
2022/04/10 05:29:18;;;;;;;;;;;;;;;11.29;51.29;101977.06;5050553;28;19916;-76
2022/04/10 05:31:43;;;;;;;;;;;;;;;11.24;50.94;101963.34;5051227;28;20360;-75
2022/04/10 05:34:08;;;;;;;;;;;;;;;11.27;50.50;101960.28;5051149;28;19917;-74
2022/04/10 05:36:33;;;;;;;;;;;;;;;11.81;49.62;101964.78;5051124;28;19997;-75
2022/04/10 05:38:59;;;;;;;;;;;;;;;11.98;49.27;101969.56;5050856;28;20012;-74
2022/04/10 05:41:24;;;;;;;;;;;;;;;10.83;51.84;101967.13;5051183;28;19912;-74
2022/04/10 05:43:49;;;;;;;;;;;;;;;10.84;52.19;101979.53;5053076;28;19916;-74
2022/04/10 05:46:15;;;;;;;;;;;;;;;9.88;55.22;101976.75;5050968;28;19920;-75
2022/04/10 05:48:40;;;;;;;;;;;;;;;10.45;54.14;101975.59;5051140;28;19932;-76
2022/04/10 05:51:06;;;;;;;;;;;;;;;10.46;53.59;101979.09;5068740;28;19917;-74
2022/04/10 05:53:31;;;;;;;;;;;;;;;10.75;52.55;101968.09;5029598;28;19917;-75
2022/04/10 05:55:57;;;;;;;;;;;;;;;10.22;54.34;101969.63;5031179;28;20376;-74
2022/04/10 05:58:22;;;;;;;;;;;;;;;10.41;54.46;101973.50;5030734;28;20373;-74
2022/04/10 06:00:48;;;;;;;;;;;;;;;11.37;52.62;101982.25;5030792;28;19986;-77
2022/04/10 06:03:13;;;;;;;;;;;;;;;11.45;51.89;101986.63;5030887;28;19964;-75
2022/04/10 06:05:38;;;;;;;;;;;;;;;11.41;52.08;101991.59;5076805;28;19920;-76
2022/04/10 06:08:04;;;;;;;;;;;;;;;11.96;50.40;101993.16;5050743;28;19909;-75
2022/04/10 06:10:29;;;;;;;;;;;;;;;11.62;51.65;101995.13;5050809;28;19917;-74
2022/04/10 06:12:54;;;;;;;;;;;;;;;11.34;52.04;101998.78;5050149;28;19966;-75
2022/04/10 06:15:20;;;;;;;;;;;;;;;11.55;52.10;102003.22;5050529;28;19917;-74
2022/04/10 06:17:46;;;;;;;;;;;;;;;11.99;52.25;101997.31;5049795;28;20049;-75
2022/04/10 06:20:11;;;;;;;;;;;;;;;11.59;53.12;101999.09;5049716;28;19925;-74
2022/04/10 06:22:37;;;;;;;;;;;;;;;11.62;53.01;101993.28;5051051;28;20436;-75
2022/04/10 06:25:02;;;;;;;;;;;;;;;11.26;54.59;101998.16;5050390;28;19917;-75
2022/04/10 06:27:27;;;;;;;;;;;;;;;10.63;56.01;102002.78;5050181;28;19967;-74
2022/04/10 06:29:53;;;;;;;;;;;;;;;10.58;56.36;102005.25;5050030;28;19967;-76
2022/04/10 06:32:18;;;;;;;;;;;;;;;11.63;53.49;102010.28;5049941;28;20288;-76
2022/04/10 06:34:43;;;;;;;;;;;;;;;11.26;54.39;102007.03;5050922;28;20313;-75
2022/04/10 06:37:08;;;;;;;;;;;;;;;11.39;54.43;102015.19;5049554;28;20419;-74
2022/04/10 06:39:34;;;;;;;;;;;;;;;11.60;54.06;102014.19;5051492;28;20365;-75
2022/04/10 06:41:59;;;;;;;;;;;;;;;12.03;52.19;102026.31;5050343;28;19923;-74
2022/04/10 06:44:24;;;;;;;;;;;;;;;11.44;53.74;102026.16;5044324;28;19951;-75
2022/04/10 06:46:50;;;;;;;;;;;;;;;10.49;55.81;102024.41;5049450;28;19955;-75
2022/04/10 06:49:15;;;;;;;;;;;;;;;11.90;52.86;102022.78;5049737;28;19909;-74
2022/04/10 06:51:41;;;;;;;;;;;;;;;11.82;53.46;102022.97;5049104;28;20399;-74
2022/04/10 06:54:07;;;;;;;;;;;;;;;11.39;54.09;102019.72;5050026;28;19923;-76
2022/04/10 06:56:32;;;;;;;;;;;;;;;11.07;54.38;102020.41;5049253;28;19982;-74
2022/04/10 06:58:57;;;;;;;;;;;;;;;11.71;53.45;102021.72;5049288;28;19921;-75
2022/04/10 07:01:23;;;;;;;;;;;;;;;11.86;52.82;102025.06;5050328;28;19916;-74
2022/04/10 07:03:48;;;;;;;;;;;;;;;11.90;52.32;102026.31;5049232;28;20404;-75
2022/04/10 07:06:13;;;;;;;;;;;;;;;12.42;51.18;102030.91;5043049;28;20289;-74
2022/04/10 07:08:38;;;;;;;;;;;;;;;11.69;53.50;102025.66;5047167;28;19970;-75
2022/04/10 07:11:03;;;;;;;;;;;;;;;12.03;52.75;102033.56;5048920;28;19913;-76
2022/04/10 07:13:29;;;;;;;;;;;;;;;11.04;54.08;102050.41;5049981;28;20346;-75
2022/04/10 07:15:54;;;;;;;;;;;;;;;11.96;53.54;102035.44;5048916;28;19986;-73
2022/04/10 07:18:19;;;;;;;;;;;;;;;12.06;52.65;102043.94;5048349;28;19924;-75
2022/04/10 07:20:45;;;;;;;;;;;;;;;10.67;55.86;102040.88;5049703;28;19927;-75
2022/04/10 07:25:54;;;;;;;;;;;;;;;11.58;53.23;102048.56;5047296;28;20008;-73
2022/04/10 07:28:20;;;;;;;;;;;;;;;11.69;54.24;102050.72;5049358;28;19996;-76
2022/04/10 07:30:45;;;;;;;;;;;;;;;12.31;51.28;102050.38;5049011;28;20332;-74
2022/04/10 07:33:11;;;;;;;;;;;;;;;11.92;53.77;102044.97;5049236;28;19963;-75
2022/04/10 07:35:38;;;;;;;;;;;;;;;11.54;53.65;102052.69;5049195;28;19916;-75
2022/04/10 07:38:03;;;;;;;;;;;;;;;11.86;53.96;102060.06;5049692;28;20333;-76
2022/04/10 07:40:29;;;;;;;;;;;;;;;11.93;53.50;102065.50;5047761;28;19999;-76
2022/04/10 07:42:55;;;;;;;;;;;;;;;12.51;53.04;102066.56;5049041;28;20066;-75
2022/04/10 07:48:04;;;;;;;;;;;;;;;12.64;51.25;102059.28;5048152;28;19920;-76
2022/04/10 07:50:30;;;;;;;;;;;;;;;12.22;52.60;102060.56;5048920;28;19920;-77
2022/04/10 07:52:55;;;;;;;;;;;;;;;13.28;51.43;102069.38;5048868;28;20281;-76
2022/04/10 07:55:21;;;;;;;;;;;;;;;13.46;50.36;102069.50;5049757;28;19913;-77
2022/04/10 07:57:47;;;;;;;;;;;;;;;13.02;50.93;102078.31;5046972;28;19961;-76
2022/04/10 08:00:13;;;;;;;;;;;;;;;12.91;50.30;102084.38;5049898;28;20007;-77
2022/04/10 08:02:39;;;;;;;;;;;;;;;12.67;52.26;102077.78;5052811;28;19916;-77
2022/04/10 08:05:04;;;;;;;;;;;;;;;13.88;49.02;102080.50;5051624;28;19916;-77
2022/04/10 08:07:30;;;;;;;;;;;;;;;13.49;49.32;102091.50;5052313;28;19952;-77
2022/04/10 08:09:55;;;;;;;;;;;;;;;12.31;51.80;102101.59;5051594;28;19916;-75
2022/04/10 08:12:20;;;;;;;;;;;;;;;13.32;50.96;102087.63;5051507;28;20000;-75
2022/04/10 08:14:46;;;;;;;;;;;;;;;13.36;48.84;102093.44;5051109;28;19928;-75
2022/04/10 08:17:12;;;;;;;;;;;;;;;12.92;51.54;102100.34;5050276;28;19921;-75
2022/04/10 08:19:40;;;;;;;;;;;;;;;12.43;51.95;102089.16;5050845;28;19923;-76
2022/04/10 08:22:05;;;;;;;;;;;;;;;13.30;50.81;102088.88;5052144;28;19927;-75
2022/04/10 08:24:30;;;;;;;;;;;;;;;12.94;50.50;102094.75;5051476;28;19925;-75
2022/04/10 08:26:56;;;;;;;;;;;;;;;12.28;51.14;102097.44;5049102;28;20345;-75
2022/04/10 08:29:21;;;;;;;;;;;;;;;12.25;50.74;102100.56;5052631;28;19921;-75
2022/04/10 08:31:47;;;;;;;;;;;;;;;12.22;51.73;102102.84;5053339;28;19917;-75
2022/04/10 08:34:12;;;;;;;;;;;;;;;12.42;50.80;102111.78;5049219;28;20003;-75
2022/04/10 08:36:39;;;;;;;;;;;;;;;11.98;51.86;102101.56;5052139;28;20007;-75
2022/04/10 08:39:05;;;;;;;;;;;;;;;12.78;50.41;102109.50;5045844;28;20008;-75
2022/04/10 08:41:32;;;;;;;;;;;;;;;12.17;51.66;102118.78;5041377;28;19940;-75
2022/04/10 08:44:01;;;;;;;;;;;;;;;12.33;50.42;102113.00;5052693;28;19908;-75
2022/04/10 08:46:27;;;;;;;;;;;;;;;11.79;49.87;102123.03;5051983;28;20440;-76
2022/04/10 08:48:52;;;;;;;;;;;;;;;11.94;50.48;102129.09;5052305;28;20000;-77
2022/04/10 08:51:18;;;;;;;;;;;;;;;12.98;49.38;102131.06;5052447;28;19923;-76
2022/04/10 08:53:44;;;;;;;;;;;;;;;12.17;49.40;102129.56;5051352;28;19966;-77
2022/04/10 08:56:09;;;;;;;;;;;;;;;11.25;50.60;102131.03;5049875;28;19927;-77
2022/04/10 08:58:34;;;;;;;;;;;;;;;11.88;49.97;102122.66;5051958;28;19916;-79
2022/04/10 09:01:00;;;;;;;;;;;;;;;12.57;48.07;102125.88;5050713;28;20438;-76
2022/04/10 09:03:25;;;;;;;;;;;;;;;11.99;50.51;102132.84;5051750;28;19913;-77
2022/04/10 09:06:07;;;;;;;;;;;;;;;12.72;48.30;102129.22;5050969;28;20457;-77
2022/04/10 09:08:33;;;;;;;;;;;;;;;12.10;49.92;102120.66;5051125;28;19945;-78
2022/04/10 09:11:00;;;;;;;;;;;;;;;12.83;47.06;102122.38;5050662;28;19916;-78
2022/04/10 09:13:26;;;;;;;;;;;;;;;12.99;46.87;102132.72;5052450;28;19924;-77
2022/04/10 09:15:53;;;;;;;;;;;;;;;13.19;47.41;102136.25;5050483;28;19952;-76
2022/04/10 09:18:18;;;;;;;;;;;;;;;12.77;49.46;102137.53;5049767;28;20381;-77
2022/04/10 09:21:03;;;;;;;;;;;;;;;12.67;48.05;102141.66;5049567;28;20296;-75
2022/04/10 09:23:29;;;;;;;;;;;;;;;13.64;45.78;102140.69;5049600;28;19929;-78
2022/04/10 09:25:57;;;;;;;;;;;;;;;13.58;46.23;102143.44;5051435;28;19919;-77
2022/04/10 09:28:39;;;;;;;;;;;;;;;14.96;42.95;102142.34;5049708;28;19995;-76
2022/04/10 09:31:22;;;;;;;;;;;;;;;13.16;45.70;102142.06;5049114;28;19923;-79
2022/04/10 09:33:49;;;;;;;;;;;;;;;13.53;44.68;102152.16;5073546;28;20379;-77
2022/04/10 09:36:26;;;;;;;;;;;;;;;13.08;45.19;102150.38;5048641;28;19920;-77
2022/04/10 09:38:51;;;;;;;;;;;;;;;13.63;45.64;102146.31;5049817;28;19921;-77
2022/04/10 09:41:19;;;;;;;;;;;;;;;14.58;44.26;102143.53;5049187;28;19916;-77
2022/04/10 09:43:45;;;;;;;;;;;;;;;14.75;43.12;102144.63;5050423;28;19912;-78
2022/04/10 09:46:13;;;;;;;;;;;;;;;14.27;43.46;102147.00;5049552;28;20533;-77
2022/04/10 09:48:39;;;;;;;;;;;;;;;14.42;42.64;102146.75;5046616;28;19917;-77
2022/04/10 09:51:04;;;;;;;;;;;;;;;13.75;41.78;102148.13;5043971;28;19924;-78
2022/04/10 09:53:32;;;;;;;;;;;;;;;13.57;42.66;102136.34;5050456;28;19952;-78
2022/04/10 09:56:02;;;;;;;;;;;;;;;13.83;40.64;102149.75;5041989;28;19913;-78
2022/04/10 09:58:28;;;;;;;;;;;;;;;14.32;40.20;102152.66;5045019;28;19917;-78
2022/04/10 10:00:54;;;;;;;;;;;;;;;13.44;39.58;102156.13;5046054;28;19931;-78
2022/04/10 10:03:20;;;;;;;;;;;;;;;12.86;39.63;102155.16;5045787;28;19924;-79
2022/04/10 10:05:47;;;;;;;;;;;;;;;12.69;39.12;102155.75;5047141;28;19916;-79
2022/04/10 10:08:12;;;;;;;;;;;;;;;13.93;37.42;102148.28;5046816;28;20005;-79
2022/04/10 10:10:38;;;;;;;;;;;;;;;14.19;36.66;102151.88;5048558;28;20011;-78
2022/04/10 10:13:05;;;;;;;;;;;;;;;13.88;37.89;102150.78;5047476;28;20891;-78
2022/04/10 10:15:31;;;;;;;;;;;;;;;13.39;39.09;102157.78;5046489;28;19928;-80
2022/04/10 10:17:57;;;;;;;;;;;;;;;14.66;35.93;102149.47;5047791;28;19969;-78
2022/04/10 10:20:23;;;;;;;;;;;;;;;15.57;34.59;102141.53;5048484;28;20395;-77
2022/04/10 10:22:49;;;;;;;;;;;;;;;15.49;34.78;102148.09;5047549;28;19912;-77
2022/04/10 10:25:27;;;;;;;;;;;;;;;13.44;37.64;102147.19;5050503;28;19923;-79
2022/04/10 10:28:11;;;;;;;;;;;;;;;14.17;36.18;102138.53;5045574;28;19947;-78
2022/04/10 10:30:55;;;;;;;;;;;;;;;14.73;36.67;102142.16;5045304;28;19973;-78
2022/04/10 10:33:22;;;;;;;;;;;;;;;15.16;36.35;102142.16;5046498;28;19913;-79
2022/04/10 10:35:52;;;;;;;;;;;;;;;14.46;37.43;102138.00;5043756;28;19946;-80
2022/04/10 10:38:18;;;;;;;;;;;;;;;13.77;38.01;102142.50;5044954;28;20537;-77
2022/04/10 10:40:43;;;;;;;;;;;;;;;14.07;37.63;102140.91;5046756;28;19920;-77
2022/04/10 10:43:08;;;;;;;;;;;;;;;15.63;35.06;102137.91;5047209;28;19917;-79
2022/04/10 10:45:38;;;;;;;;;;;;;;;16.10;33.66;102128.13;5049108;28;19913;-79
2022/04/10 10:48:22;;;;;;;;;;;;;;;14.30;36.34;102149.34;5048426;28;19921;-77
2022/04/10 10:50:49;;;;;;;;;;;;;;;16.82;33.04;102144.16;5046762;28;20335;-79
2022/04/10 10:53:14;;;;;;;;;;;;;;;16.15;32.85;102147.25;5049455;28;19921;-78
2022/04/10 10:55:49;;;;;;;;;;;;;;;16.14;33.83;102143.72;5050124;28;20426;-76
2022/04/10 10:58:15;;;;;;;;;;;;;;;14.93;36.73;102150.94;5050222;28;19929;-78
2022/04/10 11:00:40;;;;;;;;;;;;;;;14.21;37.10;102153.28;5049774;28;19924;-77
2022/04/10 11:03:08;;;;;;;;;;;;;;;16.57;35.02;102152.50;5049559;28;19970;-80
2022/04/10 11:05:35;;;;;;;;;;;;;;;16.39;34.93;102149.81;5049855;28;20017;-77
2022/04/10 11:08:00;;;;;;;;;;;;;;;16.92;33.85;102157.16;5049969;28;20372;-79
2022/04/10 11:10:29;;;;;;;;;;;;;;;15.43;34.77;102161.72;5049192;28;19909;-78
2022/04/10 11:12:59;;;;;;;;;;;;;;;14.65;36.18;102155.13;5049438;28;20379;-78
2022/04/10 11:15:28;;;;;;;;;;;;;;;16.32;32.67;102159.94;5050025;28;19917;-79
2022/04/10 11:17:53;;;;;;;;;;;;;;;15.81;33.52;102152.31;5050422;28;19913;-77
2022/04/10 11:20:23;;;;;;;;;;;;;;;15.89;33.70;102150.31;5052297;28;19928;-79
2022/04/10 11:22:59;;;;;;;;;;;;;;;17.34;33.38;102145.09;5049039;28;19927;-80
2022/04/10 11:25:38;;;;;;;;;;;;;;;15.96;32.48;102159.22;5049190;28;19905;-77
2022/04/10 11:28:04;;;;;;;;;;;;;;;16.41;31.18;102157.75;5048705;28;19917;-79
2022/04/10 11:30:29;;;;;;;;;;;;;;;16.30;30.57;102153.09;5050248;28;20230;-76
2022/04/10 11:33:03;;;;;;;;;;;;;;;15.64;33.97;102161.28;5049825;28;19927;-76
2022/04/10 11:35:33;;;;;;;;;;;;;;;16.47;33.53;102151.38;5052814;28;20011;-79
2022/04/10 11:38:18;;;;;;;;;;;;;;;16.73;33.31;102170.00;5054079;28;19966;-79
2022/04/10 11:40:50;;;;;;;;;;;;;;;15.59;33.47;102180.91;5054396;28;20372;-78
2022/04/10 11:43:16;;;;;;;;;;;;;;;16.45;32.39;102164.38;5054868;28;19927;-77
2022/04/10 11:45:42;;;;;;;;;;;;;;;15.27;31.84;102165.78;5054258;28;19932;-77
2022/04/10 11:48:08;;;;;;;;;;;;;;;16.12;30.36;102169.41;5053961;28;19963;-78
2022/04/10 11:50:33;;;;;;;;;;;;;;;17.01;30.59;102172.88;5052716;28;19917;-77
2022/04/10 11:53:03;;;;;;;;;;;;;;;16.42;29.59;102176.50;5054959;28;20356;-78
2022/04/10 11:55:33;;;;;;;;;;;;;;;15.83;28.80;102168.34;5054359;28;19905;-78
2022/04/10 11:57:59;;;;;;;;;;;;;;;16.81;28.20;102158.78;5054283;28;19924;-77
2022/04/10 12:00:24;;;;;;;;;;;;;;;16.68;29.00;102172.59;5053708;28;19943;-79
2022/04/10 12:02:52;;;;;;;;;;;;;;;16.62;27.95;102176.22;5053313;28;19913;-78
2022/04/10 12:05:18;;;;;;;;;;;;;;;15.88;29.79;102175.78;5052407;28;19921;-79
2022/04/10 12:07:44;;;;;;;;;;;;;;;16.09;30.39;102167.16;5053998;28;20300;-77
2022/04/10 12:10:09;;;;;;;;;;;;;;;16.94;28.55;102168.63;5053977;28;20292;-78
2022/04/10 12:12:36;;;;;;;;;;;;;;;16.76;30.03;102155.97;5053695;28;19917;-77
2022/04/10 12:15:02;;;;;;;;;;;;;;;16.89;29.66;102160.31;5052808;28;19998;-77
2022/04/10 12:17:27;;;;;;;;;;;;;;;16.62;30.92;102170.81;5052513;28;19927;-79
2022/04/10 12:19:57;;;;;;;;;;;;;;;16.81;30.14;102164.22;5052889;28;19917;-76
2022/04/10 12:22:22;;;;;;;;;;;;;;;16.14;31.59;102165.41;5051219;28;19994;-76
2022/04/10 12:24:48;;;;;;;;;;;;;;;15.30;32.61;102159.94;5046783;28;20408;-78
2022/04/10 12:27:14;;;;;;;;;;;;;;;15.51;32.19;102158.69;5049703;28;19971;-78
2022/04/10 12:29:40;;;;;;;;;;;;;;;15.58;33.14;102159.47;5053583;28;20317;-77
2022/04/10 12:32:07;;;;;;;;;;;;;;;16.80;31.28;102150.88;5052782;28;19920;-77
2022/04/10 12:34:33;;;;;;;;;;;;;;;16.42;31.72;102152.06;5071329;28;19988;-77
2022/04/10 12:37:05;;;;;;;;;;;;;;;17.60;29.95;102151.94;5071826;28;19985;-78
2022/04/10 12:39:30;;;;;;;;;;;;;;;16.44;30.70;102149.97;5049970;28;19924;-76